Time;durP1;ratioP1;P1;durP2;ratioP2;P2;SDS_P1;SDS_P2;PMS_P1;PMS_P2;Temp;Humidity;BMP_temperature;BMP_pressure;BME280_temperature;BME280_humidity;BME280_pressure;Samples;Min_cycle;Max_cycle;Signal;HPM_P1;HPM_P2
2023/10/07 00:02:41;;;;;;;8.15;3.80;;;;;;;;;;5023301;28;20037;-79
2023/10/07 00:05:33;;;;;;;10.10;4.68;;;;;;;;;;5028078;28;20014;-79
2023/10/07 00:08:19;;;;;;;9.55;4.82;;;;;;;;;;5025056;28;20036;-80
2023/10/07 00:11:11;;;;;;;8.85;5.05;;;;;;;;;;5018854;28;20025;-80
2023/10/07 00:13:56;;;;;;;9.55;4.70;;;;;;;;;;5033460;28;20037;-80
2023/10/07 00:16:43;;;;;;;8.82;4.75;;;;;;;;;;5025617;28;20033;-79
2023/10/07 00:19:28;;;;;;;13.50;5.03;;;;;;;;;;5024617;28;20029;-78
2023/10/07 00:22:19;;;;;;;10.95;4.60;;;;;;;;;;5025596;28;20036;-79
2023/10/07 00:25:05;;;;;;;9.20;4.97;;;;;;;;;;5019873;28;20080;-79
2023/10/07 00:27:53;;;;;;;10.57;4.30;;;;;;;;;;5034382;28;20052;-79
2023/10/07 00:30:39;;;;;;;10.93;4.68;;;;;;;;;;5036963;28;20108;-80
2023/10/07 00:33:27;;;;;;;11.60;4.30;;;;;;;;;;5024965;28;20064;-79
2023/10/07 00:36:15;;;;;;;10.18;5.18;;;;;;;;;;5025142;28;20045;-79
2023/10/07 00:39:07;;;;;;;12.57;5.00;;;;;;;;;;5024768;28;20048;-79
2023/10/07 00:41:59;;;;;;;9.02;5.10;;;;;;;;;;5025645;28;20021;-79
2023/10/07 00:44:47;;;;;;;9.70;4.25;;;;;;;;;;5020385;28;20112;-79
2023/10/07 00:47:34;;;;;;;9.07;4.32;;;;;;;;;;5024888;28;20030;-79
2023/10/07 00:50:23;;;;;;;7.40;3.97;;;;;;;;;;5037300;28;20076;-79
2023/10/07 00:53:13;;;;;;;11.85;5.20;;;;;;;;;;5026639;28;20014;-78
2023/10/07 00:55:59;;;;;;;10.63;4.25;;;;;;;;;;5026548;28;20155;-79
2023/10/07 00:58:47;;;;;;;9.65;4.57;;;;;;;;;;5023997;28;20120;-79
2023/10/07 01:01:36;;;;;;;8.18;4.22;;;;;;;;;;5018818;28;20022;-79
2023/10/07 01:04:21;;;;;;;9.18;3.83;;;;;;;;;;5020139;28;20089;-79
2023/10/07 01:07:07;;;;;;;8.18;3.95;;;;;;;;;;5024595;28;20034;-79
2023/10/07 01:10:25;;;;;;;9.95;4.28;;;;;;;;;;5028533;28;20086;-79
2023/10/07 01:13:23;;;;;;;8.10;4.25;;;;;;;;;;5024151;28;20373;-80
2023/10/07 01:16:08;;;;;;;10.63;4.65;;;;;;;;;;5020045;28;20026;-79
2023/10/07 01:19:05;;;;;;;12.55;5.65;;;;;;;;;;5022923;28;20021;-81
2023/10/07 01:21:55;;;;;;;11.32;4.60;;;;;;;;;;5029642;28;20560;-80
2023/10/07 01:30:16;;;;;;;8.43;4.13;;;;;;;;;;5029499;28;20029;-79
2023/10/07 01:33:24;;;;;;;11.25;4.60;;;;;;;;;;5025181;28;20379;-80
2023/10/07 01:36:27;;;;;;;12.73;4.55;;;;;;;;;;5030387;28;20104;-80
2023/10/07 01:39:12;;;;;;;11.95;4.97;;;;;;;;;;5036448;28;20024;-79
2023/10/07 01:42:05;;;;;;;10.48;4.65;;;;;;;;;;5029514;28;20045;-80
2023/10/07 01:44:55;;;;;;;12.45;4.72;;;;;;;;;;5029738;28;20029;-79
2023/10/07 01:47:41;;;;;;;8.98;4.45;;;;;;;;;;5037300;28;20036;-79
2023/10/07 01:50:32;;;;;;;9.27;4.75;;;;;;;;;;5037139;28;20017;-79
2023/10/07 01:53:18;;;;;;;9.98;4.15;;;;;;;;;;5026580;28;20025;-79
2023/10/07 01:56:04;;;;;;;9.10;4.47;;;;;;;;;;5043430;28;20027;-79
2023/10/07 01:58:50;;;;;;;10.20;4.50;;;;;;;;;;5026148;28;20033;-80
2023/10/07 02:01:41;;;;;;;8.93;4.47;;;;;;;;;;5029208;28;20205;-79
2023/10/07 02:04:30;;;;;;;9.82;4.57;;;;;;;;;;5025319;28;20467;-79
2023/10/07 02:07:16;;;;;;;10.45;4.75;;;;;;;;;;5025813;28;20034;-80
2023/10/07 02:10:01;;;;;;;8.40;4.43;;;;;;;;;;5025172;28;20037;-79
2023/10/07 02:12:46;;;;;;;8.25;4.15;;;;;;;;;;5023921;28;20159;-79
2023/10/07 02:15:36;;;;;;;12.43;4.95;;;;;;;;;;5023201;28;20047;-79
2023/10/07 02:18:28;;;;;;;8.95;4.22;;;;;;;;;;5027134;28;20034;-79
2023/10/07 02:21:16;;;;;;;11.70;4.93;;;;;;;;;;5024914;28;20030;-80
2023/10/07 02:24:05;;;;;;;8.73;4.57;;;;;;;;;;5028291;28;20037;-80
2023/10/07 02:26:54;;;;;;;9.15;4.07;;;;;;;;;;5025926;28;20519;-79
2023/10/07 02:29:40;;;;;;;10.93;3.92;;;;;;;;;;5024926;28;20471;-79
2023/10/07 02:32:25;;;;;;;10.45;3.88;;;;;;;;;;5024519;28;20046;-79
2023/10/07 02:35:17;;;;;;;8.48;4.10;;;;;;;;;;5029354;28;20084;-80
2023/10/07 02:38:03;;;;;;;11.20;4.28;;;;;;;;;;5026204;28;20501;-80
2023/10/07 02:40:59;;;;;;;9.80;4.35;;;;;;;;;;5026504;28;20045;-81
2023/10/07 02:43:49;;;;;;;10.77;4.60;;;;;;;;;;5025900;28;20365;-79
2023/10/07 02:46:34;;;;;;;10.05;3.88;;;;;;;;;;5026716;28;20548;-79
2023/10/07 02:49:25;;;;;;;11.20;4.85;;;;;;;;;;5027485;28;20029;-79
2023/10/07 02:52:16;;;;;;;11.32;4.85;;;;;;;;;;5029729;28;20026;-79
2023/10/07 02:58:00;;;;;;;7.82;3.80;;;;;;;;;;5041505;28;20029;-78
2023/10/07 03:00:51;;;;;;;11.82;4.63;;;;;;;;;;5018757;28;20029;-79
2023/10/07 03:04:00;;;;;;;8.65;4.30;;;;;;;;;;5027131;28;20104;-79
2023/10/07 03:06:46;;;;;;;8.13;3.97;;;;;;;;;;5023532;28;20064;-80
2023/10/07 03:09:34;;;;;;;14.20;5.20;;;;;;;;;;5032326;28;20041;-79
2023/10/07 03:12:27;;;;;;;12.88;5.10;;;;;;;;;;5023388;28;20013;-80
2023/10/07 03:15:26;;;;;;;10.70;4.53;;;;;;;;;;5023499;28;20059;-79
2023/10/07 03:18:30;;;;;;;14.07;5.13;;;;;;;;;;5024633;28;20025;-80
2023/10/07 03:21:21;;;;;;;9.57;4.32;;;;;;;;;;5026164;28;20132;-79
2023/10/07 03:24:13;;;;;;;9.70;4.78;;;;;;;;;;5027092;28;20032;-79
2023/10/07 03:27:11;;;;;;;8.85;5.03;;;;;;;;;;5026592;28;20025;-79
2023/10/07 03:30:15;;;;;;;9.82;4.50;;;;;;;;;;5017763;28;20056;-79
2023/10/07 03:33:08;;;;;;;12.93;4.57;;;;;;;;;;5021998;28;20048;-79
2023/10/07 03:38:43;;;;;;;10.32;4.80;;;;;;;;;;5020450;28;20041;-79
2023/10/07 03:41:33;;;;;;;9.52;3.90;;;;;;;;;;5021059;28;20033;-78
2023/10/07 03:44:23;;;;;;;10.00;4.00;;;;;;;;;;5025534;28;20029;-78
2023/10/07 03:47:10;;;;;;;11.65;4.55;;;;;;;;;;5030937;28;20033;-77
2023/10/07 03:49:58;;;;;;;7.50;3.42;;;;;;;;;;5031974;28;20119;-80
2023/10/07 03:52:50;;;;;;;12.50;5.03;;;;;;;;;;5028091;28;20018;-80
2023/10/07 03:55:40;;;;;;;12.65;4.88;;;;;;;;;;5038162;28;20069;-79
2023/10/07 03:58:27;;;;;;;10.07;4.60;;;;;;;;;;5049308;28;20018;-80
2023/10/07 04:01:22;;;;;;;9.45;4.22;;;;;;;;;;5022028;28;20056;-79
2023/10/07 04:04:11;;;;;;;8.23;4.10;;;;;;;;;;5024829;28;20033;-79
2023/10/07 04:07:00;;;;;;;8.30;3.72;;;;;;;;;;5023711;28;20462;-80
2023/10/07 04:09:45;;;;;;;9.02;4.22;;;;;;;;;;5023949;28;20037;-80
2023/10/07 04:12:32;;;;;;;10.45;4.32;;;;;;;;;;5019217;28;20026;-80
2023/10/07 04:15:18;;;;;;;11.77;5.35;;;;;;;;;;5019425;28;20021;-80
2023/10/07 04:18:03;;;;;;;10.23;4.80;;;;;;;;;;5021716;28;20087;-80
2023/10/07 04:23:34;;;;;;;9.77;4.20;;;;;;;;;;5031093;28;20143;-79
2023/10/07 04:26:20;;;;;;;13.30;5.32;;;;;;;;;;5027251;28;20039;-79
2023/10/07 04:29:08;;;;;;;9.57;4.30;;;;;;;;;;5024028;28;20056;-79
2023/10/07 04:31:54;;;;;;;11.32;4.45;;;;;;;;;;5019141;28;20653;-78
2023/10/07 04:35:00;;;;;;;11.90;5.13;;;;;;;;;;5023367;28;20606;-79
2023/10/07 04:37:51;;;;;;;9.05;3.90;;;;;;;;;;5026036;28;20679;-79
2023/10/07 04:44:20;;;;;;;9.65;4.13;;;;;;;;;;5068317;28;20028;-78
2023/10/07 04:50:15;;;;;;;9.68;4.15;;;;;;;;;;5044903;28;20033;-78
2023/10/07 04:53:03;;;;;;;13.48;4.35;;;;;;;;;;5028857;28;20533;-78
2023/10/07 04:55:55;;;;;;;11.85;5.00;;;;;;;;;;5040958;28;20053;-78
2023/10/07 04:58:44;;;;;;;10.63;5.13;;;;;;;;;;5022532;28;20033;-79
2023/10/07 05:01:33;;;;;;;9.88;3.55;;;;;;;;;;5020219;28;20033;-80
2023/10/07 05:04:19;;;;;;;9.25;4.40;;;;;;;;;;5019900;28;20017;-80
2023/10/07 05:07:05;;;;;;;8.52;3.90;;;;;;;;;;5027484;28;20539;-81
2023/10/07 05:09:50;;;;;;;11.25;4.72;;;;;;;;;;5019608;28;20037;-80
2023/10/07 05:12:35;;;;;;;10.23;4.05;;;;;;;;;;5023075;28;20030;-80
2023/10/07 05:15:21;;;;;;;11.95;5.30;;;;;;;;;;5026056;28;20474;-80
2023/10/07 05:18:13;;;;;;;8.98;4.25;;;;;;;;;;5029026;28;20021;-79
2023/10/07 05:20:58;;;;;;;10.40;4.47;;;;;;;;;;5029288;28;20049;-79
2023/10/07 05:23:43;;;;;;;11.20;3.80;;;;;;;;;;5029737;28;20052;-79
2023/10/07 05:26:30;;;;;;;9.68;3.83;;;;;;;;;;5034165;28;20025;-79
2023/10/07 05:29:16;;;;;;;9.00;4.35;;;;;;;;;;5026441;28;20553;-80
2023/10/07 05:32:01;;;;;;;9.43;3.70;;;;;;;;;;5011219;28;20495;-80
2023/10/07 05:34:46;;;;;;;11.43;5.60;;;;;;;;;;5026458;28;20052;-80
2023/10/07 05:37:32;;;;;;;9.27;3.90;;;;;;;;;;5027758;28;20025;-80
2023/10/07 05:40:21;;;;;;;10.80;4.78;;;;;;;;;;5027494;28;20025;-79
2023/10/07 05:43:07;;;;;;;7.82;3.53;;;;;;;;;;5041728;28;20033;-79
2023/10/07 05:45:54;;;;;;;11.57;5.57;;;;;;;;;;5024408;28;20036;-80
2023/10/07 05:48:40;;;;;;;11.13;4.80;;;;;;;;;;5024067;28;20116;-80
2023/10/07 05:51:25;;;;;;;9.23;4.35;;;;;;;;;;5035438;28;20039;-83
2023/10/07 05:54:11;;;;;;;10.57;4.80;;;;;;;;;;5020349;28;20045;-80
2023/10/07 05:56:58;;;;;;;11.15;3.90;;;;;;;;;;5021453;28;20041;-81
2023/10/07 05:59:43;;;;;;;14.52;5.05;;;;;;;;;;5024699;28;20034;-78
2023/10/07 06:02:30;;;;;;;11.10;4.90;;;;;;;;;;5024455;28;20164;-80
2023/10/07 06:05:20;;;;;;;9.45;4.57;;;;;;;;;;5019274;28;20471;-81
2023/10/07 06:08:10;;;;;;;11.30;4.68;;;;;;;;;;5036466;28;20067;-80
2023/10/07 06:10:56;;;;;;;9.60;4.07;;;;;;;;;;5010991;28;20029;-81
2023/10/07 06:13:44;;;;;;;9.63;4.00;;;;;;;;;;5021748;28;20376;-82
2023/10/07 06:16:32;;;;;;;8.80;4.28;;;;;;;;;;5034696;28;20017;-82
2023/10/07 06:19:18;;;;;;;9.57;4.47;;;;;;;;;;5043972;28;20025;-82
2023/10/07 06:22:12;;;;;;;12.60;5.18;;;;;;;;;;5031804;28;20487;-81
2023/10/07 06:25:00;;;;;;;10.13;4.53;;;;;;;;;;5028804;28;20033;-83
2023/10/07 06:27:46;;;;;;;10.20;5.28;;;;;;;;;;5027931;28;20071;-83
2023/10/07 06:30:32;;;;;;;11.07;5.07;;;;;;;;;;5024678;28;20049;-83
2023/10/07 06:33:19;;;;;;;14.02;5.13;;;;;;;;;;5030711;28;20400;-82
2023/10/07 06:36:10;;;;;;;10.40;5.50;;;;;;;;;;5023851;28;20527;-82
2023/10/07 06:38:58;;;;;;;9.02;5.03;;;;;;;;;;5029867;28;20467;-82
2023/10/07 06:41:43;;;;;;;10.57;4.65;;;;;;;;;;5026801;28;20079;-80
2023/10/07 06:44:30;;;;;;;9.25;4.20;;;;;;;;;;5029950;28;20025;-81
2023/10/07 06:47:16;;;;;;;10.32;5.00;;;;;;;;;;5033598;28;20056;-80
2023/10/07 06:50:03;;;;;;;10.00;4.57;;;;;;;;;;5029211;28;20025;-81
2023/10/07 06:52:49;;;;;;;12.65;5.88;;;;;;;;;;5027992;28;20018;-82
2023/10/07 06:55:41;;;;;;;9.25;5.00;;;;;;;;;;5041929;28;20073;-82
2023/10/07 06:58:26;;;;;;;11.18;4.53;;;;;;;;;;5039000;28;20785;-83
2023/10/07 07:01:22;;;;;;;10.15;5.43;;;;;;;;;;5029496;28;20024;-84
2023/10/07 07:04:11;;;;;;;11.48;5.72;;;;;;;;;;5027685;28;20123;-89
2023/10/07 07:07:10;;;;;;;10.23;4.60;;;;;;;;;;5033197;28;20577;-85
2023/10/07 07:09:58;;;;;;;9.18;3.95;;;;;;;;;;5041962;28;20079;-85
2023/10/07 07:12:47;;;;;;;11.25;5.07;;;;;;;;;;5030795;28;20603;-87
2023/10/07 07:15:41;;;;;;;11.20;4.10;;;;;;;;;;5032376;28;20110;-87
2023/10/07 07:18:26;;;;;;;11.63;4.45;;;;;;;;;;5032490;28;20029;-86
2023/10/07 07:21:31;;;;;;;9.18;4.40;;;;;;;;;;5033117;28;20029;-86
2023/10/07 07:24:23;;;;;;;9.10;4.25;;;;;;;;;;5025169;28;20476;-86
2023/10/07 07:27:08;;;;;;;10.57;4.68;;;;;;;;;;5032047;28;20064;-88
2023/10/07 07:29:54;;;;;;;9.13;4.22;;;;;;;;;;5031644;28;20479;-87
2023/10/07 07:32:39;;;;;;;8.48;4.18;;;;;;;;;;5030625;28;20510;-87
2023/10/07 07:35:40;;;;;;;11.65;4.03;;;;;;;;;;5033391;28;20426;-85
2023/10/07 07:38:31;;;;;;;9.02;4.32;;;;;;;;;;5043369;28;20064;-85
2023/10/07 07:41:34;;;;;;;9.13;4.43;;;;;;;;;;5034830;28;20022;-84
2023/10/07 07:44:32;;;;;;;10.25;4.65;;;;;;;;;;5036450;28;20010;-83
2023/10/07 07:47:17;;;;;;;10.73;4.30;;;;;;;;;;5034636;28;20033;-85
2023/10/07 07:50:02;;;;;;;11.93;4.53;;;;;;;;;;5030939;28;20087;-83
2023/10/07 07:52:50;;;;;;;8.75;3.78;;;;;;;;;;5031049;28;20040;-84
2023/10/07 07:55:37;;;;;;;10.02;4.70;;;;;;;;;;5035932;28;20526;-83
2023/10/07 07:58:23;;;;;;;8.98;4.45;;;;;;;;;;5028832;28;20025;-85
2023/10/07 08:01:15;;;;;;;8.27;3.55;;;;;;;;;;5030242;28;20079;-85
2023/10/07 08:04:09;;;;;;;9.00;4.15;;;;;;;;;;5030472;28;20059;-83
2023/10/07 08:06:55;;;;;;;12.98;4.30;;;;;;;;;;5019957;28;20615;-84
2023/10/07 08:09:41;;;;;;;8.63;3.42;;;;;;;;;;5017931;28;20149;-83
2023/10/07 08:12:31;;;;;;;9.80;3.88;;;;;;;;;;5040305;28;20036;-83
2023/10/07 08:18:06;;;;;;;8.02;4.13;;;;;;;;;;5016650;28;20029;-85
2023/10/07 08:20:56;;;;;;;13.07;5.05;;;;;;;;;;5029163;28;20360;-84
2023/10/07 08:23:51;;;;;;;10.45;4.28;;;;;;;;;;5016424;28;20061;-84
2023/10/07 08:26:41;;;;;;;8.13;4.22;;;;;;;;;;5033585;28;20049;-85
2023/10/07 08:29:33;;;;;;;11.73;4.82;;;;;;;;;;5030899;28;20540;-85
2023/10/07 08:32:35;;;;;;;9.02;4.03;;;;;;;;;;5028434;28;20045;-83
2023/10/07 08:35:25;;;;;;;10.90;4.80;;;;;;;;;;5038144;28;20021;-83
2023/10/07 08:38:37;;;;;;;7.75;4.10;;;;;;;;;;5037738;28;20041;-84
2023/10/07 08:41:26;;;;;;;9.85;3.88;;;;;;;;;;5019842;28;20026;-84
2023/10/07 08:44:17;;;;;;;8.73;4.10;;;;;;;;;;5027523;28;20025;-82
2023/10/07 08:47:04;;;;;;;8.05;3.90;;;;;;;;;;5022289;28;20037;-86
2023/10/07 08:49:52;;;;;;;8.57;3.70;;;;;;;;;;5023790;28;20578;-85
2023/10/07 08:52:40;;;;;;;10.48;5.03;;;;;;;;;;5027228;28;20031;-85
2023/10/07 08:55:30;;;;;;;8.57;4.50;;;;;;;;;;5025558;28;20436;-85
2023/10/07 08:58:16;;;;;;;9.30;3.58;;;;;;;;;;5022585;28;20530;-84
2023/10/07 09:01:01;;;;;;;7.90;3.53;;;;;;;;;;5038936;28;20030;-85
2023/10/07 09:03:50;;;;;;;9.90;3.80;;;;;;;;;;5025866;28;20033;-85
2023/10/07 09:06:37;;;;;;;9.15;3.63;;;;;;;;;;5020388;28;20046;-84
2023/10/07 09:09:38;;;;;;;10.55;4.05;;;;;;;;;;5026383;28;20552;-84
2023/10/07 09:12:38;;;;;;;8.65;4.25;;;;;;;;;;5045807;28;20029;-84
2023/10/07 09:15:28;;;;;;;8.20;3.30;;;;;;;;;;5037349;28;20021;-81
2023/10/07 09:18:17;;;;;;;6.50;3.45;;;;;;;;;;5022044;28;20052;-82
2023/10/07 09:21:09;;;;;;;8.68;3.42;;;;;;;;;;5024185;28;20057;-83
2023/10/07 09:24:01;;;;;;;6.57;3.42;;;;;;;;;;5037189;28;20041;-82
2023/10/07 09:26:56;;;;;;;9.27;3.50;;;;;;;;;;5027803;28;20584;-82
2023/10/07 09:29:49;;;;;;;5.50;2.88;;;;;;;;;;5033006;28;20179;-82
2023/10/07 09:32:35;;;;;;;9.23;3.38;;;;;;;;;;5031625;28;20196;-82
2023/10/07 09:35:24;;;;;;;8.80;3.67;;;;;;;;;;5029789;28;20010;-82
2023/10/07 09:38:41;;;;;;;5.97;2.78;;;;;;;;;;5025170;28;20037;-80
2023/10/07 09:41:37;;;;;;;6.57;3.38;;;;;;;;;;5036118;28;20108;-81
2023/10/07 09:44:26;;;;;;;7.30;3.42;;;;;;;;;;5029504;28;20411;-80
2023/10/07 09:47:20;;;;;;;7.32;3.42;;;;;;;;;;5032236;28;20387;-80
2023/10/07 09:50:10;;;;;;;7.80;3.85;;;;;;;;;;5032161;28;20502;-82
2023/10/07 09:53:18;;;;;;;5.55;3.33;;;;;;;;;;5031730;28;20120;-86
2023/10/07 09:56:23;;;;;;;9.85;3.83;;;;;;;;;;5034004;28;20029;-89
2023/10/07 09:59:18;;;;;;;9.50;3.88;;;;;;;;;;5030601;28;20483;-88
2023/10/07 10:02:25;;;;;;;6.68;3.50;;;;;;;;;;5011790;28;20071;-89
2023/10/07 10:05:25;;;;;;;9.30;3.78;;;;;;;;;;5032462;28;20033;-86
2023/10/07 10:08:21;;;;;;;12.35;3.42;;;;;;;;;;5038260;28;20113;-87
2023/10/07 10:11:20;;;;;;;8.85;3.67;;;;;;;;;;5033932;28;20063;-85
2023/10/07 10:17:00;;;;;;;11.23;3.80;;;;;;;;;;5037022;28;20252;-84
2023/10/07 10:19:47;;;;;;;8.43;3.53;;;;;;;;;;5035716;28;20036;-86
2023/10/07 10:22:33;;;;;;;7.75;3.67;;;;;;;;;;5023705;28;20072;-86
2023/10/07 10:25:36;;;;;;;8.68;3.60;;;;;;;;;;5031096;28;20044;-86
2023/10/07 10:28:28;;;;;;;8.98;3.67;;;;;;;;;;5028168;28;20025;-86
2023/10/07 10:31:18;;;;;;;7.05;3.42;;;;;;;;;;5031330;28;20038;-86
2023/10/07 10:34:05;;;;;;;6.97;3.30;;;;;;;;;;5045887;28;20057;-86
2023/10/07 10:36:50;;;;;;;7.72;3.42;;;;;;;;;;5045538;28;20026;-84
2023/10/07 10:39:39;;;;;;;6.72;2.90;;;;;;;;;;5029910;28;20036;-84
2023/10/07 10:42:24;;;;;;;8.98;3.70;;;;;;;;;;5034217;28;20026;-85
2023/10/07 10:45:19;;;;;;;9.35;3.20;;;;;;;;;;5031188;28;20065;-84
2023/10/07 10:48:08;;;;;;;6.07;3.15;;;;;;;;;;5035176;28;20426;-85
2023/10/07 10:50:56;;;;;;;7.32;3.25;;;;;;;;;;5044957;28;20064;-86
2023/10/07 10:53:43;;;;;;;7.07;3.35;;;;;;;;;;5036891;28;20339;-85
2023/10/07 10:56:28;;;;;;;7.22;3.65;;;;;;;;;;5036175;28;20083;-88
2023/10/07 10:59:14;;;;;;;6.47;3.17;;;;;;;;;;5027663;28;20022;-82
2023/10/07 11:02:01;;;;;;;5.95;3.05;;;;;;;;;;5015467;28;20033;-80
2023/10/07 11:04:53;;;;;;;5.65;3.20;;;;;;;;;;5039917;28;20033;-84
2023/10/07 11:07:42;;;;;;;11.32;4.18;;;;;;;;;;5026687;28;20037;-79
2023/10/07 11:10:28;;;;;;;7.05;3.28;;;;;;;;;;5028637;28;20087;-83
2023/10/07 11:13:13;;;;;;;6.82;3.15;;;;;;;;;;5041576;28;20508;-84
2023/10/07 11:16:09;;;;;;;7.53;3.17;;;;;;;;;;5038881;28;20091;-83
2023/10/07 11:18:57;;;;;;;9.75;3.35;;;;;;;;;;5023810;28;20039;-81
2023/10/07 11:21:44;;;;;;;7.82;3.50;;;;;;;;;;5031035;28;20021;-85
2023/10/07 11:24:34;;;;;;;7.38;3.35;;;;;;;;;;5047401;28;20021;-86
2023/10/07 11:27:23;;;;;;;10.45;4.00;;;;;;;;;;5051358;28;20009;-91
2023/10/07 11:30:11;;;;;;;6.93;3.35;;;;;;;;;;5050774;28;20071;-91
2023/10/07 11:39:29;;;;;;;6.55;3.35;;;;;;;;;;5035364;28;20021;-90
2023/10/07 11:42:41;;;;;;;7.07;3.47;;;;;;;;;;5009280;28;20437;-90
2023/10/07 13:47:38;;;;;;;6.68;3.05;;;;;;;;;;4737065;23;20047;-92
2023/10/07 13:51:12;;;;;;;6.65;3.08;;;;;;;;;;4934009;29;20028;-91
2023/10/07 13:57:09;;;;;;;5.88;3.42;;;;;;;;;;4923031;29;20047;-84
2023/10/07 13:59:55;;;;;;;6.22;3.42;;;;;;;;;;4930253;29;20031;-87
2023/10/07 14:02:41;;;;;;;7.82;3.45;;;;;;;;;;4930523;29;20058;-85
2023/10/07 14:05:41;;;;;;;10.48;4.68;;;;;;;;;;4930656;29;20114;-84
2023/10/07 14:08:29;;;;;;;8.55;3.85;;;;;;;;;;4930953;29;20019;-85
2023/10/07 14:11:14;;;;;;;7.20;3.92;;;;;;;;;;4939316;28;20035;-88
2023/10/07 14:14:06;;;;;;;8.93;3.75;;;;;;;;;;4916596;29;20067;-86
2023/10/07 14:17:00;;;;;;;6.28;3.15;;;;;;;;;;4927688;29;20020;-85
2023/10/07 14:19:46;;;;;;;7.60;3.40;;;;;;;;;;4929296;29;20032;-85
2023/10/07 14:22:31;;;;;;;7.38;3.42;;;;;;;;;;4918371;29;20118;-87
2023/10/07 14:25:16;;;;;;;8.02;3.20;;;;;;;;;;4918418;29;20066;-85
2023/10/07 14:28:04;;;;;;;8.45;3.22;;;;;;;;;;4930914;29;20035;-85
2023/10/07 14:30:50;;;;;;;7.50;3.50;;;;;;;;;;4924501;29;20040;-84
2023/10/07 14:33:35;;;;;;;8.30;4.25;;;;;;;;;;4930511;29;20039;-84
2023/10/07 14:36:21;;;;;;;7.97;3.35;;;;;;;;;;4920564;29;20419;-85
2023/10/07 14:39:12;;;;;;;8.00;3.88;;;;;;;;;;4923906;29;20039;-85
2023/10/07 14:41:57;;;;;;;10.80;4.50;;;;;;;;;;4923611;29;20023;-86
2023/10/07 14:44:43;;;;;;;9.50;4.53;;;;;;;;;;4928668;29;20086;-86
2023/10/07 14:47:31;;;;;;;15.20;3.92;;;;;;;;;;4932438;29;20043;-85
2023/10/07 14:50:18;;;;;;;5.80;3.35;;;;;;;;;;4933136;29;20024;-85
2023/10/07 14:53:04;;;;;;;10.57;4.28;;;;;;;;;;4932513;29;20059;-86
2023/10/07 14:55:49;;;;;;;9.13;3.75;;;;;;;;;;4931117;29;20032;-84
2023/10/07 14:58:36;;;;;;;7.93;3.65;;;;;;;;;;4929317;29;20115;-85
2023/10/07 15:01:24;;;;;;;8.15;3.28;;;;;;;;;;4919072;29;20078;-86
2023/10/07 15:04:10;;;;;;;7.68;3.95;;;;;;;;;;4929535;29;20095;-87
2023/10/07 15:06:56;;;;;;;7.70;4.05;;;;;;;;;;4930035;29;20091;-84
2023/10/07 15:09:44;;;;;;;7.70;4.25;;;;;;;;;;4931792;29;20039;-86
2023/10/07 15:12:29;;;;;;;7.00;3.70;;;;;;;;;;4929169;29;20032;-85
2023/10/07 15:15:15;;;;;;;6.80;3.20;;;;;;;;;;4933442;29;20054;-87
2023/10/07 15:18:00;;;;;;;6.63;3.75;;;;;;;;;;4928781;29;20045;-88
2023/10/07 15:20:45;;;;;;;9.32;5.30;;;;;;;;;;4931426;29;20032;-88
2023/10/07 15:23:30;;;;;;;8.27;3.78;;;;;;;;;;4931169;29;20114;-84
2023/10/07 15:26:19;;;;;;;6.65;3.53;;;;;;;;;;4933187;28;20034;-87
2023/10/07 15:29:05;;;;;;;6.63;3.78;;;;;;;;;;4931810;29;20027;-88
2023/10/07 15:31:52;;;;;;;7.40;3.67;;;;;;;;;;4927186;29;20031;-85
2023/10/07 15:34:37;;;;;;;7.45;3.42;;;;;;;;;;4932038;29;20042;-87
2023/10/07 15:37:26;;;;;;;8.23;4.18;;;;;;;;;;4929156;29;20024;-87
2023/10/07 15:40:14;;;;;;;9.65;4.45;;;;;;;;;;4915838;29;20127;-87
2023/10/07 15:43:00;;;;;;;9.52;4.55;;;;;;;;;;4926277;29;20024;-87
2023/10/07 15:45:51;;;;;;;7.43;3.63;;;;;;;;;;4929450;29;20030;-87
2023/10/07 15:48:36;;;;;;;10.25;4.00;;;;;;;;;;4927911;29;20039;-86
2023/10/07 15:51:22;;;;;;;6.63;3.78;;;;;;;;;;4930906;29;20035;-86
2023/10/07 15:54:10;;;;;;;10.00;4.10;;;;;;;;;;4928092;29;20038;-86
2023/10/07 15:56:55;;;;;;;9.77;5.35;;;;;;;;;;4928068;29;20032;-88
2023/10/07 15:59:43;;;;;;;12.50;5.45;;;;;;;;;;4930172;29;20031;-89
2023/10/07 16:02:28;;;;;;;12.60;5.60;;;;;;;;;;4925132;29;20042;-86
2023/10/07 16:05:20;;;;;;;8.85;5.00;;;;;;;;;;4924669;29;20032;-85
2023/10/07 16:08:05;;;;;;;10.57;5.30;;;;;;;;;;4931120;29;20036;-84
2023/10/07 16:10:52;;;;;;;11.82;5.43;;;;;;;;;;4925589;29;20044;-83
2023/10/07 16:13:37;;;;;;;11.13;5.75;;;;;;;;;;4926485;29;20031;-85
2023/10/07 16:16:25;;;;;;;13.32;6.80;;;;;;;;;;4930788;29;20027;-89
2023/10/07 16:19:10;;;;;;;10.00;5.88;;;;;;;;;;4917024;29;20020;-84
2023/10/07 16:21:57;;;;;;;13.75;6.18;;;;;;;;;;4926287;29;20044;-84
2023/10/07 16:24:43;;;;;;;9.20;4.82;;;;;;;;;;4927893;29;20538;-85
2023/10/07 16:27:31;;;;;;;10.43;5.05;;;;;;;;;;4926717;29;20036;-84
2023/10/07 16:30:17;;;;;;;8.48;4.53;;;;;;;;;;4941938;28;20031;-83
2023/10/07 16:33:04;;;;;;;7.95;4.25;;;;;;;;;;4927503;29;20118;-84
2023/10/07 16:35:49;;;;;;;9.90;4.57;;;;;;;;;;4932867;29;20035;-83
2023/10/07 16:38:37;;;;;;;10.68;4.63;;;;;;;;;;4931822;29;20065;-83
2023/10/07 16:41:23;;;;;;;9.85;4.45;;;;;;;;;;4929439;29;20019;-83
2023/10/07 16:44:09;;;;;;;11.32;4.68;;;;;;;;;;4932292;29;20563;-83
2023/10/07 16:46:54;;;;;;;9.60;4.03;;;;;;;;;;4927975;29;20054;-84
2023/10/07 16:49:40;;;;;;;10.00;5.03;;;;;;;;;;4923032;29;20106;-84
2023/10/07 16:52:28;;;;;;;10.15;4.25;;;;;;;;;;4945705;28;20036;-85
2023/10/07 16:55:13;;;;;;;11.25;4.93;;;;;;;;;;4931038;29;20035;-85
2023/10/07 16:57:59;;;;;;;10.30;4.53;;;;;;;;;;4931453;29;20028;-86
2023/10/07 17:00:44;;;;;;;14.70;4.65;;;;;;;;;;4930974;29;20103;-83
2023/10/07 17:03:29;;;;;;;8.65;4.97;;;;;;;;;;4931517;29;20035;-84
2023/10/07 17:06:14;;;;;;;9.55;5.10;;;;;;;;;;4927977;28;20032;-85
2023/10/07 17:09:00;;;;;;;10.10;4.60;;;;;;;;;;4909927;29;20104;-86
2023/10/07 17:11:45;;;;;;;11.10;5.22;;;;;;;;;;4942206;28;20032;-85
2023/10/07 17:14:32;;;;;;;8.55;4.40;;;;;;;;;;4925003;29;20055;-85
2023/10/07 17:17:17;;;;;;;11.50;5.38;;;;;;;;;;4933705;29;20443;-84
2023/10/07 17:20:06;;;;;;;10.07;5.28;;;;;;;;;;4924656;29;20036;-85
2023/10/07 17:22:52;;;;;;;14.32;6.15;;;;;;;;;;4931963;29;20513;-84
2023/10/07 17:25:43;;;;;;;15.40;6.80;;;;;;;;;;4927868;29;20048;-84
2023/10/07 17:28:28;;;;;;;12.88;6.63;;;;;;;;;;4930562;29;20039;-85
2023/10/07 17:31:14;;;;;;;14.02;5.82;;;;;;;;;;4927320;29;20241;-85
2023/10/07 17:34:01;;;;;;;12.75;6.90;;;;;;;;;;4928307;29;20023;-82
2023/10/07 17:36:48;;;;;;;11.25;6.13;;;;;;;;;;4932960;29;20042;-84
2023/10/07 17:39:36;;;;;;;11.45;5.75;;;;;;;;;;4931150;29;20035;-84
2023/10/07 17:42:21;;;;;;;11.18;5.43;;;;;;;;;;4941347;29;20026;-83
2023/10/07 17:45:17;;;;;;;11.02;6.43;;;;;;;;;;4936836;29;20023;-84
2023/10/07 17:48:03;;;;;;;10.50;6.00;;;;;;;;;;4948203;29;20043;-83
2023/10/07 17:50:50;;;;;;;11.63;5.25;;;;;;;;;;4936610;29;20083;-85
2023/10/07 17:53:36;;;;;;;12.63;6.25;;;;;;;;;;4943263;29;20059;-84
2023/10/07 17:56:24;;;;;;;10.50;5.68;;;;;;;;;;4931837;29;20027;-85
2023/10/07 17:59:11;;;;;;;13.07;6.65;;;;;;;;;;4930258;29;20031;-85
2023/10/07 18:01:57;;;;;;;10.82;6.95;;;;;;;;;;4930554;29;20035;-84
2023/10/07 18:04:46;;;;;;;17.88;8.43;;;;;;;;;;4929801;29;20105;-82
2023/10/07 18:07:34;;;;;;;17.70;9.30;;;;;;;;;;4929061;29;20032;-83
2023/10/07 18:10:20;;;;;;;15.45;7.00;;;;;;;;;;4914999;29;20046;-83
2023/10/07 18:13:06;;;;;;;12.50;6.65;;;;;;;;;;4928579;29;20482;-83
2023/10/07 18:15:52;;;;;;;12.88;7.50;;;;;;;;;;4929965;29;20074;-82
2023/10/07 18:18:37;;;;;;;16.95;9.25;;;;;;;;;;4932330;29;20024;-83
2023/10/07 18:21:22;;;;;;;15.63;9.98;;;;;;;;;;4930868;29;20090;-82
2023/10/07 18:24:08;;;;;;;16.90;8.85;;;;;;;;;;4937415;28;20474;-84
2023/10/07 18:26:53;;;;;;;11.98;6.72;;;;;;;;;;4929917;29;20138;-86
2023/10/07 18:29:39;;;;;;;12.38;6.55;;;;;;;;;;4930158;29;20031;-84
2023/10/07 18:32:24;;;;;;;12.82;6.13;;;;;;;;;;4930152;29;20043;-81
2023/10/07 18:35:09;;;;;;;15.10;6.55;;;;;;;;;;4931103;29;20024;-82
2023/10/07 18:37:55;;;;;;;14.00;6.82;;;;;;;;;;4931440;29;20118;-83
2023/10/07 18:40:41;;;;;;;10.93;5.70;;;;;;;;;;4933076;29;20052;-82
2023/10/07 18:43:26;;;;;;;10.95;5.85;;;;;;;;;;4931191;29;20054;-81
2023/10/07 18:46:12;;;;;;;11.25;6.35;;;;;;;;;;4932646;29;20047;-84
2023/10/07 18:48:57;;;;;;;11.32;5.97;;;;;;;;;;4933262;29;20035;-83
2023/10/07 18:51:42;;;;;;;16.25;7.43;;;;;;;;;;4933651;29;20098;-85
2023/10/07 18:54:28;;;;;;;18.80;7.47;;;;;;;;;;4933357;29;20039;-83
2023/10/07 18:57:13;;;;;;;14.90;6.70;;;;;;;;;;4934309;29;20032;-84
2023/10/07 18:59:58;;;;;;;13.68;6.57;;;;;;;;;;4953310;28;20079;-83
2023/10/07 19:02:44;;;;;;;12.10;7.28;;;;;;;;;;4948388;29;20044;-82
2023/10/07 19:05:29;;;;;;;10.70;5.72;;;;;;;;;;4955868;29;20039;-85
2023/10/07 19:08:15;;;;;;;11.02;5.55;;;;;;;;;;4936711;29;20028;-83
2023/10/07 19:11:11;;;;;;;11.60;5.60;;;;;;;;;;4947649;29;20032;-84
2023/10/07 19:13:56;;;;;;;15.68;5.88;;;;;;;;;;4929301;29;20404;-84
2023/10/07 19:16:41;;;;;;;11.95;5.75;;;;;;;;;;4935432;29;20478;-84
2023/10/07 19:19:27;;;;;;;12.05;5.82;;;;;;;;;;4938714;29;20035;-84
2023/10/07 19:22:15;;;;;;;12.70;6.50;;;;;;;;;;4935951;29;20367;-84
2023/10/07 19:25:00;;;;;;;12.07;5.75;;;;;;;;;;4924032;29;20028;-83